Portada
METAR-TAF:

METAR-TAF

Aeroports :

Tak, Tailàndia

latitud: 16-53N, longitud: 099-09E, altitud: 121 m

METAR: manca

Hora: 02:00 (19:00 UTC)

Pronòstic

L'informe es va fer fa 2 hores i 0 minuts, a les 17:00 UTC
Pronòstic vàlid del 23 a les 18 UTC al 24 a les 18 UTC
Vent 5 kt del Est
Visibilitat 10 km o més
Escasses núvols a una alçada de 2500 ft
Temporalment
l' 24 a les 09 UTC al 24 a les 12 UTC
Vent 15 kt amb direcció variable amb ràfegues de 30 kt
Visibilitat: 4000 m
Escasses núvols a una alçada de 2000 ft, Cumulonimbus.
Cel ennuvolat a una alçada de 3000 ft
tempesta, pluja

TAF: VTPT 231700Z 2318/2418 09005KT 9999 FEW025 TEMPO 2409/2412 VRB15G30KT 4000 TSRA FEW020CB BKN030

Observacions i pronòstics meteorològics de més de 4000 aeroports (METAR i TAF).

Les estacions disponibles són els punts grocs i vermells al mapa.

Posi el ratolí al punt desitjat per veure el nom de l'estació.

Feu clic per veure les observacions i els pronòstics meteorològics.

Per canviar el mapa: feu clic els botons verds amb una creu de color negre per apropar; al botó verd amb un guió per allunyar la imatge; o en les fletxes verdes per a mapes adjacents.


METAR-TAF: